createdAt,value
2023-12-16T00:00:17.968Z,14.67
2023-12-16T00:02:46.525Z,16.23
2023-12-16T00:05:14.676Z,16.23
2023-12-16T00:07:44.031Z,16.13
2023-12-16T00:10:12.690Z,16.43
2023-12-16T00:12:41.162Z,14.53
2023-12-16T00:15:11.778Z,17.30
2023-12-16T00:17:40.199Z,17.50
2023-12-16T00:20:10.307Z,16.53
2023-12-16T00:22:39.457Z,15.90
2023-12-16T00:25:10.009Z,20.60
2023-12-16T00:27:38.922Z,16.80
2023-12-16T00:30:08.552Z,18.07
2023-12-16T00:32:39.128Z,18.33
2023-12-16T00:35:08.425Z,19.43
2023-12-16T00:37:36.891Z,19.20
2023-12-16T00:40:06.352Z,19.77
2023-12-16T00:42:35.862Z,15.67
2023-12-16T00:45:04.046Z,21.57
2023-12-16T00:47:32.335Z,17.80
2023-12-16T00:50:00.791Z,17.77
2023-12-16T00:52:28.857Z,16.67
2023-12-16T00:54:57.007Z,18.50
2023-12-16T00:57:25.083Z,18.30
2023-12-16T00:59:54.487Z,22.53
2023-12-16T01:02:22.523Z,22.20
2023-12-16T01:04:51.009Z,20.57
2023-12-16T01:07:19.118Z,22.40
2023-12-16T01:09:47.275Z,17.50
2023-12-16T01:12:15.400Z,19.90
2023-12-16T01:14:43.511Z,22.83
2023-12-16T01:17:13.581Z,18.87
2023-12-16T01:19:41.738Z,29.27
2023-12-16T01:22:10.057Z,19.53
2023-12-16T01:24:38.453Z,24.07
2023-12-16T01:27:07.189Z,23.43
2023-12-16T01:29:37.142Z,21.43
2023-12-16T01:32:05.836Z,21.80
2023-12-16T01:34:35.291Z,23.13
2023-12-16T01:37:03.706Z,22.63
2023-12-16T01:39:31.742Z,20.87
2023-12-16T01:41:59.796Z,23.60
2023-12-16T01:44:27.838Z,22.80
2023-12-16T01:46:55.956Z,20.47
2023-12-16T01:49:24.808Z,25.23
2023-12-16T01:51:54.735Z,22.43
2023-12-16T01:54:23.649Z,21.67
2023-12-16T01:56:58.104Z,24.00
2023-12-16T01:59:28.780Z,21.43
2023-12-16T02:01:57.418Z,22.10
2023-12-16T02:04:25.660Z,20.60
2023-12-16T02:06:55.482Z,22.33
2023-12-16T02:09:24.830Z,18.83
2023-12-16T02:11:54.570Z,20.77
2023-12-16T02:14:22.705Z,20.77
2023-12-16T02:16:50.803Z,19.37
2023-12-16T02:19:25.751Z,19.50
2023-12-16T02:21:55.407Z,20.33
2023-12-16T02:24:25.149Z,19.70
2023-12-16T02:26:53.270Z,24.97
2023-12-16T02:29:22.036Z,22.37
2023-12-16T02:31:50.175Z,21.43
2023-12-16T02:34:18.248Z,23.43
2023-12-16T02:36:46.420Z,23.57
2023-12-16T02:39:17.010Z,25.53
2023-12-16T02:41:46.535Z,28.60
2023-12-16T02:44:14.788Z,19.03
2023-12-16T02:46:42.820Z,20.30
2023-12-16T02:49:10.945Z,24.00
2023-12-16T02:51:39.075Z,27.30
2023-12-16T02:54:07.103Z,23.73
2023-12-16T02:56:35.175Z,21.20
2023-12-16T02:59:06.043Z,24.30
2023-12-16T03:01:34.206Z,23.83
2023-12-16T03:04:02.301Z,18.53
2023-12-16T03:06:30.379Z,22.03
2023-12-16T03:08:58.455Z,26.37
2023-12-16T03:11:26.558Z,21.60
2023-12-16T03:13:54.713Z,19.67
2023-12-16T03:16:24.266Z,21.53
2023-12-16T03:18:52.425Z,22.83
2023-12-16T03:21:20.485Z,22.17
2023-12-16T03:23:48.942Z,19.07
2023-12-16T03:26:16.980Z,25.73
2023-12-16T03:28:45.855Z,22.13
2023-12-16T03:31:14.150Z,22.03
2023-12-16T03:33:43.687Z,21.77
2023-12-16T03:36:11.827Z,27.43
2023-12-16T03:38:39.880Z,19.83
2023-12-16T03:41:08.161Z,22.30
2023-12-16T03:43:36.979Z,22.57
2023-12-16T03:46:05.428Z,26.70
2023-12-16T03:48:37.014Z,20.00
2023-12-16T03:51:06.960Z,24.37
2023-12-16T03:53:35.573Z,18.20
2023-12-16T03:56:03.630Z,22.87
2023-12-16T03:58:32.551Z,21.73
2023-12-16T04:01:01.034Z,17.80
2023-12-16T04:03:31.454Z,22.63
2023-12-16T04:05:59.596Z,17.03
2023-12-16T04:08:29.003Z,24.03
2023-12-16T04:10:57.064Z,26.23
2023-12-16T04:13:25.096Z,19.77
2023-12-16T04:15:53.861Z,20.77
2023-12-16T04:18:22.765Z,21.53
2023-12-16T04:20:50.889Z,19.57
2023-12-16T04:23:19.013Z,24.73
2023-12-16T04:25:48.475Z,25.70
2023-12-16T04:28:19.017Z,19.03
2023-12-16T04:30:47.386Z,20.43
2023-12-16T04:33:16.416Z,20.30
2023-12-16T04:35:45.479Z,20.77
2023-12-16T04:38:17.742Z,22.47
2023-12-16T04:40:46.123Z,19.07
2023-12-16T04:43:15.537Z,24.27
2023-12-16T04:45:44.328Z,20.80
2023-12-16T04:48:12.587Z,20.80
2023-12-16T04:50:40.678Z,18.07
2023-12-16T04:53:08.702Z,19.10
2023-12-16T04:55:36.862Z,24.80
2023-12-16T04:58:05.303Z,18.10
2023-12-16T05:00:34.984Z,20.03
2023-12-16T05:03:03.859Z,16.50
2023-12-16T05:05:31.948Z,22.37
2023-12-16T05:08:00.045Z,21.23
2023-12-16T05:10:28.061Z,19.10
2023-12-16T05:12:56.100Z,21.47
2023-12-16T05:15:24.158Z,22.00
2023-12-16T05:17:53.849Z,24.90
2023-12-16T05:20:22.037Z,20.27
2023-12-16T05:22:50.108Z,22.70
2023-12-16T05:25:18.285Z,19.83
2023-12-16T05:27:46.370Z,23.97
2023-12-16T05:30:15.242Z,21.80
2023-12-16T05:32:42.380Z,20.30
2023-12-16T05:35:11.936Z,21.93
2023-12-16T05:37:41.583Z,21.40
2023-12-16T05:40:10.843Z,23.70
2023-12-16T05:42:38.985Z,20.27
2023-12-16T05:45:07.821Z,19.10
2023-12-16T05:47:35.998Z,20.10
2023-12-16T05:50:04.712Z,19.37
2023-12-16T05:52:34.942Z,18.73
2023-12-16T05:55:03.194Z,27.57
2023-12-16T05:57:31.555Z,18.50
2023-12-16T05:59:59.585Z,23.37
2023-12-16T06:02:27.853Z,20.00
2023-12-16T06:04:55.953Z,19.80
2023-12-16T06:07:24.098Z,23.90
2023-12-16T06:09:53.582Z,27.03
2023-12-16T06:12:21.694Z,17.63
2023-12-16T06:14:53.494Z,17.20
2023-12-16T06:17:21.668Z,16.90
2023-12-16T06:19:49.727Z,16.47
2023-12-16T06:22:18.120Z,20.73
2023-12-16T06:24:46.187Z,20.00
2023-12-16T06:27:15.562Z,15.53
2023-12-16T06:29:43.767Z,24.30
2023-12-16T06:32:12.548Z,15.43
2023-12-16T06:34:41.037Z,21.30
2023-12-16T06:37:09.239Z,18.10
2023-12-16T06:39:37.314Z,18.37
2023-12-16T06:42:05.946Z,14.30
2023-12-16T06:44:35.630Z,14.70
2023-12-16T06:47:03.678Z,23.10
2023-12-16T06:49:31.835Z,17.27
2023-12-16T06:51:59.976Z,19.67
2023-12-16T06:54:28.410Z,20.60
2023-12-16T06:56:56.779Z,17.93
2023-12-16T06:59:24.901Z,17.30
2023-12-16T07:01:54.687Z,19.43
2023-12-16T07:04:23.147Z,11.70
2023-12-16T07:06:52.560Z,19.20
2023-12-16T07:09:20.765Z,13.93
2023-12-16T07:11:49.563Z,15.87
2023-12-16T07:14:18.012Z,14.10
2023-12-16T07:16:46.200Z,16.30
2023-12-16T07:19:18.611Z,11.90
2023-12-16T07:21:47.000Z,13.73
2023-12-16T07:24:15.040Z,12.47
2023-12-16T07:26:43.982Z,11.53
2023-12-16T07:29:12.070Z,14.73
2023-12-16T07:31:40.191Z,11.80
2023-12-16T07:34:08.525Z,14.80
2023-12-16T07:36:37.971Z,11.73
2023-12-16T07:39:06.056Z,10.67
2023-12-16T07:41:35.625Z,12.23
2023-12-16T07:44:03.982Z,12.53
2023-12-16T07:46:35.191Z,11.10
2023-12-16T07:49:04.199Z,7.93
2023-12-16T07:51:32.350Z,13.27
2023-12-16T07:54:01.831Z,13.70
2023-12-16T07:56:29.929Z,14.87
2023-12-16T07:58:58.703Z,12.73
2023-12-16T08:01:26.930Z,11.30
2023-12-16T08:03:55.766Z,10.23
2023-12-16T08:06:27.140Z,13.23
2023-12-16T08:08:57.299Z,12.63
2023-12-16T08:11:27.001Z,11.00
2023-12-16T08:13:55.167Z,8.53
2023-12-16T08:16:27.269Z,11.70
2023-12-16T08:18:55.600Z,12.10
2023-12-16T08:21:24.210Z,14.13
2023-12-16T08:23:52.277Z,10.23
2023-12-16T08:26:20.519Z,9.00
2023-12-16T08:28:51.515Z,8.10
2023-12-16T08:31:20.711Z,11.27
2023-12-16T08:33:49.827Z,31.00
2023-12-16T08:36:18.520Z,8.67
2023-12-16T08:38:47.042Z,11.57
2023-12-16T08:41:15.749Z,10.20
2023-12-16T08:43:44.245Z,9.37
2023-12-16T08:46:14.277Z,11.63
2023-12-16T08:48:42.475Z,7.93
2023-12-16T08:51:10.778Z,9.10
2023-12-16T08:53:39.794Z,12.07
2023-12-16T08:56:09.368Z,11.40
2023-12-16T08:58:37.563Z,9.50
2023-12-16T09:01:07.531Z,12.40
2023-12-16T09:03:37.845Z,7.77
2023-12-16T09:06:07.318Z,9.10
2023-12-16T09:08:35.450Z,11.60
2023-12-16T09:11:03.830Z,7.93
2023-12-16T09:13:32.262Z,6.87
2023-12-16T09:16:00.699Z,6.40
2023-12-16T09:18:28.952Z,7.60
2023-12-16T09:20:58.495Z,7.83
2023-12-16T09:23:27.461Z,7.40
2023-12-16T09:25:55.524Z,11.53
2023-12-16T09:28:28.724Z,6.97
2023-12-16T09:30:57.038Z,5.57
2023-12-16T09:33:27.728Z,5.23
2023-12-16T09:35:56.008Z,5.57
2023-12-16T09:38:26.152Z,7.60
2023-12-16T09:40:54.772Z,5.20
2023-12-16T09:43:24.380Z,17.53
2023-12-16T09:45:53.432Z,6.07
2023-12-16T09:48:22.725Z,4.73
2023-12-16T09:50:50.805Z,6.60
2023-12-16T09:53:18.847Z,9.47
2023-12-16T09:55:51.057Z,11.73
2023-12-16T09:58:21.458Z,5.57
2023-12-16T10:00:50.913Z,7.97
2023-12-16T10:03:19.092Z,7.40
2023-12-16T10:05:48.674Z,7.60
2023-12-16T10:08:17.346Z,6.60
2023-12-16T10:10:54.066Z,7.43
2023-12-16T10:13:24.422Z,13.03
2023-12-16T10:15:52.528Z,8.40
2023-12-16T10:18:20.885Z,7.37
2023-12-16T10:20:49.003Z,8.63
2023-12-16T10:23:17.394Z,7.27
2023-12-16T10:25:45.997Z,36.30
2023-12-16T10:28:16.681Z,7.70
2023-12-16T10:30:46.348Z,5.87
2023-12-16T10:33:16.409Z,8.03
2023-12-16T10:35:44.641Z,7.27
2023-12-16T10:38:13.601Z,11.30
2023-12-16T10:40:43.098Z,7.40
2023-12-16T10:43:11.917Z,7.47
2023-12-16T10:45:40.128Z,6.63
2023-12-16T10:48:12.563Z,7.83
2023-12-16T10:50:45.874Z,5.37
2023-12-16T10:53:19.626Z,7.10
2023-12-16T10:55:55.966Z,4.43
2023-12-16T10:58:27.455Z,7.30
2023-12-16T11:01:06.757Z,5.37
2023-12-16T11:03:42.929Z,8.57
2023-12-16T11:06:17.839Z,6.57
2023-12-16T11:08:47.021Z,11.37
2023-12-16T11:11:18.571Z,7.80
2023-12-16T11:13:46.959Z,7.53
2023-12-16T11:16:20.552Z,8.60
2023-12-16T11:18:51.734Z,9.13
2023-12-16T11:21:24.154Z,6.73
2023-12-16T11:23:52.944Z,7.40
2023-12-16T11:26:24.364Z,4.17
2023-12-16T11:28:57.659Z,5.97
2023-12-16T11:31:27.418Z,9.23
2023-12-16T11:33:56.966Z,8.10
2023-12-16T11:36:50.165Z,8.90
2023-12-16T11:39:38.462Z,5.13
2023-12-16T11:42:07.639Z,11.60
2023-12-16T11:44:55.269Z,9.43
2023-12-16T11:47:25.699Z,9.23
2023-12-16T11:49:56.453Z,7.40
2023-12-16T11:52:25.969Z,8.13
2023-12-16T11:54:56.601Z,5.80
2023-12-16T11:57:26.717Z,11.60
2023-12-16T11:59:57.534Z,6.47
2023-12-16T12:02:26.625Z,7.20
2023-12-16T12:05:01.306Z,6.07
2023-12-16T12:07:31.442Z,16.57
2023-12-16T12:09:59.502Z,6.60
2023-12-16T12:12:27.595Z,15.83
2023-12-16T12:14:55.839Z,6.47
2023-12-16T12:17:24.155Z,8.47
2023-12-16T12:19:52.558Z,7.30
2023-12-16T12:22:23.485Z,11.60
2023-12-16T12:24:54.928Z,11.50
2023-12-16T12:27:23.096Z,10.37
2023-12-16T12:29:56.604Z,7.63
2023-12-16T12:32:25.194Z,6.57
2023-12-16T12:35:06.793Z,8.90
2023-12-16T12:37:41.960Z,10.73
2023-12-16T12:40:18.829Z,15.07
2023-12-16T12:42:49.805Z,9.90
2023-12-16T12:45:28.497Z,9.37
2023-12-16T12:47:57.490Z,5.53
2023-12-16T12:50:27.444Z,11.27
2023-12-16T12:53:19.632Z,6.57
2023-12-16T12:55:45.435Z,11.37
2023-12-16T12:58:19.832Z,11.00
2023-12-16T13:00:53.431Z,16.27
2023-12-16T13:03:22.159Z,5.73
2023-12-16T13:05:51.534Z,4.97
2023-12-16T13:08:21.862Z,8.60
2023-12-16T13:10:52.497Z,8.30
2023-12-16T13:13:21.683Z,10.50
2023-12-16T13:15:54.983Z,7.30
2023-12-16T13:18:27.442Z,14.93
2023-12-16T13:20:57.207Z,13.43
2023-12-16T13:23:28.041Z,12.83
2023-12-16T13:25:56.675Z,10.57
2023-12-16T13:28:25.010Z,11.37
2023-12-16T13:30:53.737Z,8.10
2023-12-16T13:33:22.524Z,8.70
2023-12-16T13:35:51.162Z,11.03
2023-12-16T13:38:19.354Z,9.67
2023-12-16T13:40:52.397Z,12.00
2023-12-16T13:43:22.306Z,8.30
2023-12-16T13:45:52.104Z,10.57
2023-12-16T13:48:22.068Z,8.10
2023-12-16T13:50:50.459Z,11.13
2023-12-16T13:53:19.131Z,14.83
2023-12-16T13:55:48.595Z,10.07
2023-12-16T13:58:18.377Z,8.60
2023-12-16T14:00:46.535Z,12.77
2023-12-16T14:03:14.885Z,10.70
2023-12-16T14:05:44.028Z,9.47
2023-12-16T14:08:12.506Z,9.30
2023-12-16T14:10:42.582Z,8.90
2023-12-16T14:13:14.627Z,11.17
2023-12-16T14:15:44.053Z,8.53
2023-12-16T14:18:12.148Z,7.90
2023-12-16T14:20:40.272Z,13.63
2023-12-16T14:23:08.359Z,7.63
2023-12-16T14:25:36.677Z,8.40
2023-12-16T14:28:05.075Z,9.87
2023-12-16T14:30:37.563Z,12.00
2023-12-16T14:33:06.325Z,9.90
2023-12-16T14:35:37.698Z,11.57
2023-12-16T14:38:06.939Z,13.23
2023-12-16T14:40:35.067Z,35.23
2023-12-16T14:43:03.249Z,9.73
2023-12-16T14:45:31.390Z,11.90
2023-12-16T14:48:00.923Z,13.90
2023-12-16T14:50:29.077Z,11.33
2023-12-16T14:52:57.145Z,9.60
2023-12-16T14:55:26.793Z,10.60
2023-12-16T14:57:54.996Z,7.57
2023-12-16T15:00:29.353Z,7.17
2023-12-16T15:02:57.758Z,14.27
2023-12-16T15:05:27.473Z,11.43
2023-12-16T15:07:56.547Z,12.10
2023-12-16T15:10:24.698Z,11.10
2023-12-16T15:12:52.761Z,12.00
2023-12-16T15:15:22.467Z,16.97
2023-12-16T15:17:50.948Z,16.00
2023-12-16T15:20:19.137Z,9.80
2023-12-16T15:22:48.515Z,16.63
2023-12-16T15:25:17.689Z,10.10
2023-12-16T15:27:46.045Z,10.03
2023-12-16T15:30:18.931Z,14.63
2023-12-16T15:32:47.231Z,11.50
2023-12-16T15:35:17.861Z,9.80
2023-12-16T15:37:48.460Z,12.30
2023-12-16T15:40:19.396Z,9.07
2023-12-16T15:42:47.486Z,7.80
2023-12-16T15:45:16.060Z,12.87
2023-12-16T15:47:44.611Z,12.80
2023-12-16T15:50:12.933Z,11.10
2023-12-16T15:52:41.304Z,10.77
2023-12-16T15:55:11.155Z,13.73
2023-12-16T15:57:41.986Z,11.20
2023-12-16T16:00:12.742Z,11.67
2023-12-16T16:02:40.930Z,12.50
2023-12-16T16:05:09.848Z,12.40
2023-12-16T16:07:38.069Z,12.03
2023-12-16T16:10:07.296Z,10.53
2023-12-16T16:12:36.759Z,13.13
2023-12-16T16:15:05.238Z,8.33
2023-12-16T16:17:47.350Z,8.60
2023-12-16T16:20:16.673Z,15.23
2023-12-16T16:22:45.034Z,11.43
2023-12-16T16:25:13.312Z,6.23
2023-12-16T16:27:43.154Z,11.30
2023-12-16T16:30:12.475Z,11.53
2023-12-16T16:32:41.122Z,11.70
2023-12-16T16:35:10.406Z,11.13
2023-12-16T16:37:38.969Z,7.33
2023-12-16T16:40:08.290Z,7.50
2023-12-16T16:42:36.348Z,10.00
2023-12-16T16:45:06.956Z,8.87
2023-12-16T16:47:35.256Z,13.23
2023-12-16T16:50:05.005Z,14.50
2023-12-16T16:52:33.137Z,8.93
2023-12-16T16:55:01.233Z,14.50
2023-12-16T16:57:30.438Z,8.47
2023-12-16T17:00:02.334Z,10.00
2023-12-16T17:02:34.050Z,15.87
2023-12-16T17:05:02.296Z,10.77
2023-12-16T17:07:30.604Z,11.37
2023-12-16T17:09:58.627Z,7.97
2023-12-16T17:12:27.739Z,11.43
2023-12-16T17:14:56.054Z,11.37
2023-12-16T17:17:24.146Z,12.73
2023-12-16T17:19:53.583Z,12.10
2023-12-16T17:22:22.269Z,11.73
2023-12-16T17:24:50.293Z,15.73
2023-12-16T17:27:18.582Z,12.00
2023-12-16T17:29:46.659Z,10.83
2023-12-16T17:32:14.756Z,17.73
2023-12-16T17:34:42.800Z,11.67
2023-12-16T17:37:12.328Z,19.83
2023-12-16T17:39:40.789Z,15.93
2023-12-16T17:42:09.048Z,18.93
2023-12-16T17:44:43.066Z,19.93
2023-12-16T17:47:11.232Z,14.73
2023-12-16T17:49:39.443Z,15.00
2023-12-16T17:52:08.030Z,20.37
2023-12-16T17:54:37.858Z,20.13
2023-12-16T17:57:06.404Z,18.70
2023-12-16T17:59:35.772Z,14.80
2023-12-16T18:02:04.791Z,16.30
2023-12-16T18:04:36.939Z,13.80
2023-12-16T18:07:05.822Z,12.50
2023-12-16T18:09:33.889Z,19.53
2023-12-16T18:12:03.402Z,14.83
2023-12-16T18:14:37.022Z,14.73
2023-12-16T18:17:05.697Z,20.43
2023-12-16T18:19:33.975Z,19.93
2023-12-16T18:22:02.159Z,18.07
2023-12-16T18:24:30.358Z,19.53
2023-12-16T18:26:58.530Z,18.77
2023-12-16T18:29:28.081Z,18.23
2023-12-16T18:31:56.241Z,14.63
2023-12-16T18:34:24.710Z,14.57
2023-12-16T18:36:53.635Z,16.53
2023-12-16T18:39:21.880Z,19.33
2023-12-16T18:41:52.659Z,18.23
2023-12-16T18:44:21.152Z,18.67
2023-12-16T18:46:50.543Z,22.27
2023-12-16T18:49:18.924Z,21.43
2023-12-16T18:51:47.162Z,16.83
2023-12-16T18:54:17.120Z,20.83
2023-12-16T18:56:46.208Z,18.70
2023-12-16T18:59:14.488Z,25.50
2023-12-16T19:01:42.623Z,24.57
2023-12-16T19:04:12.155Z,21.53
2023-12-16T19:06:40.260Z,22.50
2023-12-16T19:09:10.106Z,27.00
2023-12-16T19:11:38.836Z,19.97
2023-12-16T19:14:07.148Z,23.00
2023-12-16T19:16:35.310Z,23.73
2023-12-16T19:19:03.577Z,18.43
2023-12-16T19:21:33.130Z,22.93
2023-12-16T19:24:04.294Z,21.23
2023-12-16T19:26:32.348Z,19.30
2023-12-16T19:29:00.469Z,19.83
2023-12-16T19:31:28.459Z,23.67
2023-12-16T19:33:56.640Z,26.77
2023-12-16T19:36:24.725Z,21.23
2023-12-16T19:38:56.530Z,19.10
2023-12-16T19:41:24.611Z,25.73
2023-12-16T19:43:52.651Z,20.70
2023-12-16T19:46:20.716Z,24.83
2023-12-16T19:48:49.568Z,20.43
2023-12-16T19:51:17.738Z,23.57
2023-12-16T19:53:48.261Z,25.57
2023-12-16T19:56:17.623Z,21.10
2023-12-16T19:58:45.798Z,25.00
2023-12-16T20:01:13.892Z,25.57
2023-12-16T20:03:44.793Z,19.73
2023-12-16T20:06:12.939Z,24.70
2023-12-16T20:08:41.116Z,22.10
2023-12-16T20:11:12.376Z,26.17
2023-12-16T20:13:44.225Z,24.40
2023-12-16T20:16:12.333Z,26.60
2023-12-16T20:18:40.634Z,28.40
2023-12-16T20:21:09.499Z,29.43
2023-12-16T20:23:37.556Z,32.87
2023-12-16T20:26:06.580Z,26.73
2023-12-16T20:28:34.696Z,28.23
2023-12-16T20:31:04.343Z,29.77
2023-12-16T20:33:33.310Z,23.73
2023-12-16T20:36:03.000Z,30.67
2023-12-16T20:38:48.291Z,29.60
2023-12-16T20:41:16.341Z,31.00
2023-12-16T20:43:44.368Z,30.70
2023-12-16T20:46:14.010Z,37.77
2023-12-16T20:48:43.531Z,31.80
2023-12-16T20:51:15.010Z,25.73
2023-12-16T20:53:44.252Z,28.90
2023-12-16T20:56:13.058Z,34.03
2023-12-16T20:58:41.158Z,33.00
2023-12-16T21:01:09.322Z,27.60
2023-12-16T21:03:39.004Z,31.30
2023-12-16T21:06:07.987Z,32.90
2023-12-16T21:08:36.180Z,35.10
2023-12-16T21:11:04.438Z,27.43
2023-12-16T21:13:32.486Z,22.63
2023-12-16T21:16:01.179Z,24.30
2023-12-16T21:18:29.333Z,25.13
2023-12-16T21:20:58.834Z,21.30
2023-12-16T21:23:26.924Z,30.03
2023-12-16T21:25:54.929Z,22.83
2023-12-16T21:28:23.012Z,30.47
2023-12-16T21:30:51.053Z,30.10
2023-12-16T21:33:24.530Z,23.23
2023-12-16T21:35:53.078Z,22.73
2023-12-16T21:38:22.599Z,22.70
2023-12-16T21:40:50.727Z,24.23
2023-12-16T21:43:19.215Z,21.23
2023-12-16T21:45:47.239Z,22.80
2023-12-16T21:48:15.499Z,18.77
2023-12-16T21:50:43.831Z,26.40
2023-12-16T21:53:12.563Z,25.00
2023-12-16T21:55:42.128Z,26.93
2023-12-16T21:58:10.187Z,25.10
2023-12-16T22:00:38.418Z,23.90
2023-12-16T22:03:07.539Z,18.47
2023-12-16T22:05:36.289Z,21.63
2023-12-16T22:08:07.411Z,16.60
2023-12-16T22:10:35.847Z,21.47
2023-12-16T22:13:05.519Z,19.20
2023-12-16T22:15:33.589Z,19.90
2023-12-16T22:18:01.672Z,22.23
2023-12-16T22:20:29.902Z,23.77
2023-12-16T22:22:58.089Z,19.70
2023-12-16T22:25:26.824Z,19.67
2023-12-16T22:27:55.516Z,19.47
2023-12-16T22:30:24.968Z,21.10
2023-12-16T22:32:53.113Z,20.40
2023-12-16T22:35:24.220Z,21.27
2023-12-16T22:37:53.080Z,25.80
2023-12-16T22:40:21.691Z,23.80
2023-12-16T22:42:49.725Z,22.10
2023-12-16T22:45:18.040Z,24.47
2023-12-16T22:47:47.692Z,28.63
2023-12-16T22:50:16.060Z,20.93
2023-12-16T22:52:44.338Z,26.30
2023-12-16T22:55:12.565Z,28.20
2023-12-16T22:57:42.275Z,28.83
2023-12-16T23:00:22.266Z,21.80
2023-12-16T23:02:52.206Z,25.00
2023-12-16T23:05:20.429Z,22.53
2023-12-16T23:07:48.556Z,18.83
2023-12-16T23:10:24.755Z,21.70
2023-12-16T23:12:54.204Z,19.77
2023-12-16T23:15:22.481Z,23.23
2023-12-16T23:17:52.160Z,19.33
2023-12-16T23:20:20.618Z,16.50
2023-12-16T23:22:48.691Z,18.60
2023-12-16T23:25:17.061Z,23.23
2023-12-16T23:27:44.117Z,18.73
2023-12-16T23:30:12.952Z,24.07
2023-12-16T23:32:41.372Z,20.90
2023-12-16T23:35:11.127Z,20.27
2023-12-16T23:37:39.528Z,19.43
2023-12-16T23:40:09.280Z,20.43
2023-12-16T23:42:37.319Z,18.83
2023-12-16T23:45:06.409Z,22.03
2023-12-16T23:47:35.173Z,24.23
2023-12-16T23:50:06.853Z,22.60
2023-12-16T23:52:36.314Z,19.70
2023-12-16T23:55:04.735Z,19.50
2023-12-16T23:57:32.958Z,21.57
